Startpagina
METAR-TAF:

METAR-TAF

Vliegvelden :

Malabo, Equatoriaal-Guinea

Luchthaven Malabo

breedte: 03-45-18N, lengte: 08-42-31E, hoogte: 23 m

Actueel weer

Dit bericht is 47 minuten geleden gemaakt, om 16:00 UTC
Wind 9 kt uit het westzuidwesten
Temperatuur 30°C
Vochtigheid 70%
Druk 1009 hPa
Zicht 10 km of meer
Weinig wolken op 1000 ft

METAR: FGSL 271600Z 25009KT 9999 FEW010 30/24 Q1009 NOSIG

Tijdstip: 17:47 (16:47 UTC)

Verwachting

Dit bericht is 5 uur en het 47 minuten geleden gemaakt, om 11:00 UTC
Verwachting geldig van 27 om 12 UTC tot 28 om 18 UTC
Wind 6 kt uit het zuidwesten
Zicht 10 km of meer
Verspreide wolken op 1200 ft
Tijdelijke
van 27 om 13 UTC tot 27 om 20 UTC
Gebroken wolken op 1200 ft
Weinig wolken op 2000 ft, Cumulonimbus.
Tijdelijke
van 27 om 23 UTC tot 28 om 04 UTC
Zicht: 4000 m
Gebroken wolken op 800 ft
Weinig wolken op 1600 ft, Cumulonimbus.
onweer, regen

TAF: FGSL 271100Z 2712/2818 22006KT 9999 SCT012 TEMPO 2713/2720 BKN012 FEW020CB TEMPO 2723/2804 4000 TSRA BKN008 FEW016CB

Waarnemingen en weersverwachtingen van meer dan 4000 vliegvelden (METAR en TAF).

De beschikbare stations zijn de gele en rode punten op de kaart.

Ga met uw muis naar het station om de naam te zien.

Klik dan om waarnemingen en weersverwachtingen te zien.

kaart wijzigen: klik op de groene knoppen met een zwart kruis om in te zoomen, op de groene knop met een streepje om uit te zoomen of op de groene pijlen voor aangrenzende kaarten.


METAR-TAF: